createdAt,value
2017-11-15T00:01:19.994Z,20.67
2017-11-15T00:03:48.880Z,18.80
2017-11-15T00:06:18.485Z,19.30
2017-11-15T00:08:48.842Z,20.43
2017-11-15T00:11:17.758Z,20.20
2017-11-15T00:13:46.629Z,18.13
2017-11-15T00:16:15.483Z,16.77
2017-11-15T00:18:45.091Z,18.93
2017-11-15T00:21:13.935Z,19.17
2017-11-15T00:23:42.759Z,18.03
2017-11-15T00:26:11.649Z,19.83
2017-11-15T00:28:42.001Z,16.57
2017-11-15T00:31:10.831Z,17.80
2017-11-15T00:33:39.681Z,17.33
2017-11-15T00:36:08.543Z,17.40
2017-11-15T00:38:37.726Z,17.63
2017-11-15T00:41:06.625Z,18.07
2017-11-15T00:43:35.589Z,19.07
2017-11-15T00:46:04.415Z,18.57
2017-11-15T00:48:33.289Z,19.23
2017-11-15T00:51:02.132Z,19.33
2017-11-15T00:53:30.979Z,16.80
2017-11-15T00:55:59.835Z,17.63
2017-11-15T00:58:29.436Z,17.53
2017-11-15T01:00:58.760Z,17.87
2017-11-15T01:03:27.823Z,17.97
2017-11-15T01:05:56.656Z,17.50
2017-11-15T01:08:25.491Z,22.17
2017-11-15T01:10:55.137Z,17.27
2017-11-15T01:13:24.025Z,16.37
2017-11-15T01:15:52.882Z,18.77
2017-11-15T01:18:21.708Z,20.20
2017-11-15T01:20:52.308Z,19.40
2017-11-15T01:23:21.941Z,18.30
2017-11-15T01:25:50.781Z,19.00
2017-11-15T01:28:19.633Z,19.53
2017-11-15T01:30:48.479Z,20.90
2017-11-15T01:33:18.174Z,19.57
2017-11-15T01:35:47.011Z,21.03
2017-11-15T01:38:15.872Z,19.37
2017-11-15T01:40:44.723Z,18.60
2017-11-15T01:43:15.077Z,19.93
2017-11-15T01:45:44.684Z,19.83
2017-11-15T01:48:14.314Z,22.10
2017-11-15T01:50:43.150Z,20.87
2017-11-15T01:53:11.979Z,23.83
2017-11-15T01:55:40.837Z,20.13
2017-11-15T01:58:09.685Z,20.70
2017-11-15T02:00:50.306Z,20.40
2017-11-15T02:03:20.420Z,21.10
2017-11-15T02:05:50.041Z,20.60
2017-11-15T02:08:18.964Z,20.37
2017-11-15T02:10:47.812Z,23.80
2017-11-15T02:13:16.658Z,23.80
2017-11-15T02:15:45.508Z,20.37
2017-11-15T02:18:15.132Z,20.93
2017-11-15T02:20:43.984Z,21.00
2017-11-15T02:23:12.814Z,20.77
2017-11-15T02:25:41.672Z,24.00
2017-11-15T02:28:12.104Z,18.57
2017-11-15T02:30:41.704Z,18.10
2017-11-15T02:33:11.347Z,20.80
2017-11-15T02:35:40.204Z,24.20
2017-11-15T02:38:09.810Z,18.43
2017-11-15T02:40:39.435Z,17.47
2017-11-15T02:43:08.282Z,18.33
2017-11-15T02:45:37.131Z,17.40
2017-11-15T02:48:06.002Z,19.70
2017-11-15T02:50:35.840Z,19.53
2017-11-15T02:53:05.105Z,19.20
2017-11-15T02:55:33.957Z,16.53
2017-11-15T02:58:02.801Z,21.53
2017-11-15T03:00:31.689Z,20.40
2017-11-15T03:03:00.562Z,19.17
2017-11-15T03:05:30.158Z,16.97
2017-11-15T03:07:59.772Z,17.60
2017-11-15T03:10:28.684Z,16.43
2017-11-15T03:12:57.528Z,19.53
2017-11-15T03:15:26.362Z,23.43
2017-11-15T03:17:55.215Z,18.40
2017-11-15T03:20:24.824Z,19.73
2017-11-15T03:22:54.456Z,20.23
2017-11-15T03:25:23.298Z,21.33
2017-11-15T03:27:52.136Z,21.40
2017-11-15T03:30:21.778Z,24.13
2017-11-15T03:32:50.635Z,20.73
2017-11-15T03:35:19.455Z,22.57
2017-11-15T03:37:48.308Z,21.57
2017-11-15T03:40:17.169Z,24.83
2017-11-15T03:42:46.038Z,23.87
2017-11-15T03:45:14.853Z,22.93
2017-11-15T03:47:43.688Z,23.00
2017-11-15T03:50:13.296Z,21.00
2017-11-15T03:52:42.903Z,26.47
2017-11-15T03:55:12.516Z,21.87
2017-11-15T03:57:42.139Z,25.70
2017-11-15T04:00:11.004Z,26.73
2017-11-15T04:02:40.609Z,23.83
2017-11-15T04:05:10.243Z,25.57
2017-11-15T04:07:39.120Z,21.63
2017-11-15T04:10:07.935Z,22.63
2017-11-15T04:12:36.785Z,28.17
2017-11-15T04:15:06.416Z,25.60
2017-11-15T04:17:35.259Z,21.60
2017-11-15T04:20:04.115Z,24.63
2017-11-15T04:22:32.948Z,24.40
2017-11-15T04:25:01.815Z,24.03
2017-11-15T04:27:30.649Z,25.93
2017-11-15T04:30:00.267Z,27.40
2017-11-15T04:32:29.945Z,25.90
2017-11-15T04:34:58.776Z,23.40
2017-11-15T04:37:27.666Z,27.33
2017-11-15T04:40:01.776Z,32.77
2017-11-15T04:42:30.637Z,22.93
2017-11-15T04:44:59.468Z,30.13
2017-11-15T04:47:28.315Z,31.07
2017-11-15T04:49:57.911Z,23.90
2017-11-15T04:52:27.540Z,25.20
2017-11-15T04:54:56.379Z,26.30
2017-11-15T04:57:25.238Z,24.70
2017-11-15T04:59:54.084Z,22.60
2017-11-15T05:02:23.276Z,25.87
2017-11-15T05:04:52.901Z,22.70
2017-11-15T05:07:21.746Z,28.67
2017-11-15T05:09:50.693Z,25.13
2017-11-15T05:12:19.590Z,24.97
2017-11-15T05:14:49.196Z,30.50
2017-11-15T05:17:18.041Z,26.00
2017-11-15T05:19:46.883Z,23.70
2017-11-15T05:22:15.740Z,23.37
2017-11-15T05:24:45.340Z,21.03
2017-11-15T05:27:14.981Z,21.33
2017-11-15T05:29:44.071Z,24.93
2017-11-15T05:32:12.966Z,24.10
2017-11-15T05:34:41.836Z,26.40
2017-11-15T05:37:11.652Z,23.67
2017-11-15T05:39:40.937Z,24.37
2017-11-15T05:42:10.554Z,29.77
2017-11-15T05:44:40.144Z,26.50
2017-11-15T05:47:08.991Z,24.13
2017-11-15T05:49:37.838Z,24.60
2017-11-15T05:52:07.458Z,26.70
2017-11-15T05:54:36.305Z,25.17
2017-11-15T05:57:06.657Z,26.30
2017-11-15T05:59:36.285Z,27.63
2017-11-15T06:02:05.516Z,26.73
2017-11-15T06:04:34.371Z,25.60
2017-11-15T06:07:03.339Z,24.60
2017-11-15T06:09:32.191Z,22.07
2017-11-15T06:12:01.087Z,23.50
2017-11-15T06:14:30.679Z,22.53
2017-11-15T06:16:59.596Z,22.27
2017-11-15T06:19:28.489Z,21.97
2017-11-15T06:21:58.042Z,21.70
2017-11-15T06:24:27.673Z,21.50
2017-11-15T06:26:56.612Z,22.90
2017-11-15T06:29:26.332Z,25.00
2017-11-15T06:31:55.162Z,24.10
2017-11-15T06:34:23.924Z,23.90
2017-11-15T06:36:52.805Z,22.20
2017-11-15T06:39:21.608Z,22.87
2017-11-15T06:41:50.467Z,24.60
2017-11-15T06:44:20.066Z,25.27
2017-11-15T06:46:48.932Z,23.80
2017-11-15T06:49:18.568Z,23.27
2017-11-15T06:51:47.413Z,22.77
2017-11-15T06:54:16.270Z,20.73
2017-11-15T06:56:45.800Z,21.70
2017-11-15T06:59:14.671Z,41.13
2017-11-15T07:01:43.624Z,38.27
2017-11-15T07:04:12.490Z,32.37
2017-11-15T07:06:42.481Z,33.10
2017-11-15T07:09:11.295Z,23.63
2017-11-15T07:11:41.001Z,27.40
2017-11-15T07:14:10.610Z,25.70
2017-11-15T07:16:40.226Z,26.57
2017-11-15T07:19:09.864Z,24.83
2017-11-15T07:21:38.752Z,26.90
2017-11-15T07:24:08.139Z,21.57
2017-11-15T07:26:37.730Z,23.33
2017-11-15T07:29:07.361Z,19.40
2017-11-15T07:31:36.198Z,19.67
2017-11-15T07:34:05.036Z,22.40
2017-11-15T07:36:33.887Z,20.60
2017-11-15T07:39:02.728Z,25.07
2017-11-15T07:41:31.565Z,24.07
2017-11-15T07:44:00.408Z,20.37
2017-11-15T07:46:30.925Z,21.37
2017-11-15T07:49:00.538Z,20.93
2017-11-15T07:51:30.139Z,17.73
2017-11-15T07:53:59.748Z,19.60
2017-11-15T07:56:29.356Z,22.67
2017-11-15T07:58:58.969Z,19.20
2017-11-15T08:01:28.577Z,18.57
2017-11-15T08:03:57.448Z,18.10
2017-11-15T08:06:26.268Z,16.83
2017-11-15T08:08:55.180Z,15.63
2017-11-15T08:11:24.695Z,15.33
2017-11-15T08:13:53.527Z,15.93
2017-11-15T08:16:23.136Z,15.37
2017-11-15T08:18:52.770Z,12.80
2017-11-15T08:21:21.625Z,16.60
2017-11-15T08:23:51.236Z,12.77
2017-11-15T08:26:20.877Z,12.73
2017-11-15T08:28:49.767Z,15.50
2017-11-15T08:31:19.373Z,11.27
2017-11-15T08:33:48.212Z,13.67
2017-11-15T08:36:17.964Z,11.60
2017-11-15T08:38:46.796Z,11.10
2017-11-15T08:41:15.672Z,12.07
2017-11-15T08:43:44.856Z,12.40
2017-11-15T08:46:13.675Z,14.50
2017-11-15T08:48:42.520Z,11.03
2017-11-15T08:51:11.373Z,11.63
2017-11-15T08:53:40.235Z,10.80
2017-11-15T08:56:09.710Z,13.50
2017-11-15T08:58:38.573Z,16.13
2017-11-15T09:01:07.408Z,11.30
2017-11-15T09:03:37.043Z,11.50
2017-11-15T09:06:05.903Z,12.47
2017-11-15T09:08:35.561Z,11.90
2017-11-15T09:11:04.401Z,13.23
2017-11-15T09:13:33.396Z,13.30
2017-11-15T09:16:03.024Z,16.30
2017-11-15T09:18:31.874Z,12.40
2017-11-15T09:21:00.725Z,14.30
2017-11-15T09:23:29.575Z,13.40
2017-11-15T09:25:58.859Z,14.90
2017-11-15T09:28:30.301Z,12.03
2017-11-15T09:30:59.144Z,11.87
2017-11-15T09:33:28.011Z,14.33
2017-11-15T09:35:57.632Z,15.50
2017-11-15T09:38:26.489Z,14.07
2017-11-15T09:40:56.097Z,15.30
2017-11-15T09:43:25.036Z,16.50
2017-11-15T09:45:53.855Z,15.20
2017-11-15T09:48:22.729Z,14.43
2017-11-15T09:50:51.687Z,12.00
2017-11-15T09:53:20.536Z,13.30
2017-11-15T09:55:49.388Z,12.27
2017-11-15T09:58:18.255Z,12.60
2017-11-15T10:00:47.907Z,17.80
2017-11-15T10:03:16.749Z,19.30
2017-11-15T10:05:46.376Z,16.53
2017-11-15T10:08:16.700Z,12.50
2017-11-15T10:10:46.330Z,13.60
2017-11-15T10:13:15.184Z,17.65
2017-11-15T10:15:44.820Z,18.40
2017-11-15T10:18:14.430Z,13.10
2017-11-15T10:20:43.273Z,12.50
2017-11-15T10:23:12.119Z,12.30
2017-11-15T10:25:40.981Z,13.93
2017-11-15T10:28:10.606Z,13.87
2017-11-15T10:30:39.471Z,11.63
2017-11-15T10:33:09.090Z,13.67
2017-11-15T10:35:37.953Z,14.00
2017-11-15T10:38:06.783Z,10.07
2017-11-15T10:40:35.625Z,12.07
2017-11-15T10:43:04.464Z,12.07
2017-11-15T10:45:33.326Z,11.80
2017-11-15T10:48:02.192Z,11.27
2017-11-15T10:50:31.796Z,12.50
2017-11-15T10:53:00.664Z,16.07
2017-11-15T10:55:30.462Z,12.10
2017-11-15T10:58:00.100Z,13.10
2017-11-15T11:00:34.624Z,11.90
2017-11-15T11:03:03.464Z,11.87
2017-11-15T11:05:33.400Z,12.93
2017-11-15T11:08:03.044Z,10.40
2017-11-15T11:10:31.868Z,14.57
2017-11-15T11:13:00.721Z,13.93
2017-11-15T11:15:30.482Z,12.80
2017-11-15T11:17:59.321Z,11.53
2017-11-15T11:20:28.189Z,10.77
2017-11-15T11:22:57.788Z,8.93
2017-11-15T11:25:27.394Z,11.73
2017-11-15T11:27:57.085Z,9.30
2017-11-15T11:30:25.940Z,10.07
2017-11-15T11:32:54.768Z,9.50
2017-11-15T11:35:24.617Z,9.00
2017-11-15T11:37:55.225Z,9.97
2017-11-15T11:40:24.835Z,8.40
2017-11-15T11:42:54.440Z,8.07
2017-11-15T11:45:23.806Z,8.17
2017-11-15T11:47:52.624Z,10.20
2017-11-15T11:50:21.457Z,6.73
2017-11-15T11:52:50.418Z,7.63
2017-11-15T11:55:19.241Z,7.63
2017-11-15T11:57:48.100Z,8.43
2017-11-15T12:00:16.953Z,7.57
2017-11-15T12:02:46.565Z,7.77
2017-11-15T12:05:15.410Z,8.80
2017-11-15T12:07:44.227Z,8.17
2017-11-15T12:10:13.848Z,8.57
2017-11-15T12:12:43.443Z,9.20
2017-11-15T12:15:13.051Z,7.90
2017-11-15T12:17:42.664Z,10.83
2017-11-15T12:20:12.280Z,9.47
2017-11-15T12:22:41.123Z,8.70
2017-11-15T12:25:09.957Z,9.40
2017-11-15T12:27:38.786Z,8.13
2017-11-15T12:30:07.650Z,8.87
2017-11-15T12:32:36.507Z,8.93
2017-11-15T12:35:06.142Z,12.90
2017-11-15T12:37:34.995Z,11.03
2017-11-15T12:40:03.838Z,6.83
2017-11-15T12:42:32.679Z,7.40
2017-11-15T12:45:01.517Z,6.03
2017-11-15T12:47:30.474Z,6.83
2017-11-15T12:49:59.308Z,7.77
2017-11-15T12:52:28.148Z,6.03
2017-11-15T12:54:57.076Z,5.57
2017-11-15T12:57:25.887Z,6.50
2017-11-15T12:59:55.547Z,8.23
2017-11-15T13:02:24.382Z,6.90
2017-11-15T13:04:53.990Z,6.60
2017-11-15T13:07:23.433Z,6.80
2017-11-15T13:09:53.191Z,8.07
2017-11-15T13:12:22.070Z,6.30
2017-11-15T13:14:50.905Z,6.80
2017-11-15T13:17:19.749Z,6.27
2017-11-15T13:19:48.585Z,9.90
2017-11-15T13:22:17.421Z,7.47
2017-11-15T13:24:46.247Z,7.03
2017-11-15T13:27:15.850Z,7.43
2017-11-15T13:29:44.847Z,6.97
2017-11-15T13:32:14.455Z,7.80
2017-11-15T13:34:44.071Z,10.60
2017-11-15T13:37:12.915Z,8.23
2017-11-15T13:39:43.286Z,8.93
2017-11-15T13:42:12.109Z,10.83
2017-11-15T13:44:40.974Z,7.97
2017-11-15T13:47:10.261Z,7.40
2017-11-15T13:49:39.101Z,7.20
2017-11-15T13:52:07.937Z,7.00
2017-11-15T13:54:37.000Z,7.20
2017-11-15T13:57:06.624Z,8.17
2017-11-15T13:59:36.220Z,6.83
2017-11-15T14:02:05.849Z,7.10
2017-11-15T14:04:34.680Z,9.93
2017-11-15T14:07:03.519Z,7.63
2017-11-15T14:09:32.776Z,7.30
2017-11-15T14:12:01.631Z,7.90
2017-11-15T14:14:30.496Z,7.10
2017-11-15T14:16:59.343Z,7.90
2017-11-15T14:19:28.191Z,8.87
2017-11-15T14:21:57.032Z,11.37
2017-11-15T14:24:26.658Z,6.40
2017-11-15T14:26:56.277Z,7.50
2017-11-15T14:29:25.277Z,7.10
2017-11-15T14:31:54.132Z,8.00
2017-11-15T14:34:22.957Z,8.23
2017-11-15T14:36:51.857Z,7.03
2017-11-15T14:39:21.444Z,8.40
2017-11-15T14:41:50.291Z,9.70
2017-11-15T14:44:19.920Z,7.73
2017-11-15T14:46:50.007Z,6.80
2017-11-15T14:49:18.847Z,6.50
2017-11-15T14:51:47.668Z,7.57
2017-11-15T14:54:17.283Z,7.50
2017-11-15T14:56:46.910Z,8.27
2017-11-15T14:59:15.756Z,10.50
2017-11-15T15:01:45.513Z,7.13
2017-11-15T15:04:14.352Z,9.17
2017-11-15T15:06:43.241Z,8.03
2017-11-15T15:09:13.340Z,7.40
2017-11-15T15:11:42.187Z,8.60
2017-11-15T15:14:11.774Z,8.47
2017-11-15T15:16:41.413Z,8.17
2017-11-15T15:19:10.265Z,8.80
2017-11-15T15:21:39.113Z,8.40
2017-11-15T15:24:07.985Z,9.57
2017-11-15T15:26:37.225Z,11.53
2017-11-15T15:29:06.067Z,6.70
2017-11-15T15:31:35.287Z,6.40
2017-11-15T15:34:04.111Z,8.30
2017-11-15T15:36:32.946Z,7.60
2017-11-15T15:39:01.784Z,7.50
2017-11-15T15:41:30.624Z,14.73
2017-11-15T15:43:59.473Z,6.77
2017-11-15T15:46:28.296Z,10.90
2017-11-15T15:48:57.155Z,7.93
2017-11-15T15:51:26.733Z,7.23
2017-11-15T15:53:55.585Z,8.70
2017-11-15T15:56:24.450Z,9.20
2017-11-15T15:58:54.071Z,7.90
2017-11-15T16:01:22.981Z,9.33
2017-11-15T16:03:51.899Z,11.10
2017-11-15T16:06:20.739Z,8.67
2017-11-15T16:08:49.601Z,6.60
2017-11-15T16:11:18.428Z,7.57
2017-11-15T16:13:47.297Z,7.70
2017-11-15T16:16:16.892Z,6.00
2017-11-15T16:18:46.489Z,7.90
2017-11-15T16:21:16.100Z,6.93
2017-11-15T16:23:45.702Z,7.90
2017-11-15T16:26:14.678Z,11.27
2017-11-15T16:28:43.503Z,8.23
2017-11-15T16:31:12.356Z,8.47
2017-11-15T16:33:42.018Z,12.60
2017-11-15T16:36:10.943Z,12.47
2017-11-15T16:38:39.788Z,7.60
2017-11-15T16:41:08.636Z,8.83
2017-11-15T16:43:37.496Z,7.17
2017-11-15T16:46:06.348Z,9.07
2017-11-15T16:48:35.212Z,8.00
2017-11-15T16:51:04.840Z,8.83
2017-11-15T16:53:34.288Z,8.17
2017-11-15T16:56:03.152Z,7.30
2017-11-15T16:58:32.024Z,7.57
2017-11-15T17:01:01.936Z,10.57
2017-11-15T17:03:30.829Z,8.00
2017-11-15T17:05:59.666Z,10.73
2017-11-15T17:08:28.538Z,7.80
2017-11-15T17:10:57.387Z,19.97
2017-11-15T17:13:27.030Z,13.50
2017-11-15T17:15:56.735Z,17.97
2017-11-15T17:18:26.871Z,18.50
2017-11-15T17:20:55.727Z,14.43
2017-11-15T17:23:24.603Z,16.93
2017-11-15T17:25:54.239Z,12.80
2017-11-15T17:28:23.090Z,18.03
2017-11-15T17:30:52.783Z,16.13
2017-11-15T17:33:21.607Z,25.00
2017-11-15T17:35:50.552Z,22.17
2017-11-15T17:38:20.188Z,26.83
2017-11-15T17:40:49.839Z,20.50
2017-11-15T17:43:18.767Z,27.73
2017-11-15T17:45:47.578Z,26.97
2017-11-15T17:48:17.735Z,30.57
2017-11-15T17:50:47.394Z,25.97
2017-11-15T17:53:16.267Z,27.60
2017-11-15T17:55:45.134Z,22.70
2017-11-15T17:58:14.788Z,29.97
2017-11-15T18:00:43.840Z,28.07
2017-11-15T18:03:13.370Z,29.10
2017-11-15T18:05:42.221Z,18.13
2017-11-15T18:08:11.630Z,20.80
2017-11-15T18:10:40.444Z,25.70
2017-11-15T18:13:09.350Z,18.80
2017-11-15T18:15:38.210Z,21.00
2017-11-15T18:18:09.151Z,20.53
2017-11-15T18:20:38.029Z,22.43
2017-11-15T18:23:07.714Z,26.10
2017-11-15T18:25:36.570Z,26.80
2017-11-15T18:28:05.490Z,32.70
2017-11-15T18:30:34.353Z,31.03
2017-11-15T18:33:03.191Z,34.03
2017-11-15T18:35:32.825Z,35.80
2017-11-15T18:38:01.700Z,30.93
2017-11-15T18:40:31.321Z,29.97
2017-11-15T18:43:00.207Z,32.00
2017-11-15T18:45:30.342Z,25.20
2017-11-15T18:47:59.240Z,21.10
2017-11-15T18:50:28.886Z,21.27
2017-11-15T18:52:57.737Z,22.13
2017-11-15T18:55:27.128Z,27.03
2017-11-15T18:57:57.169Z,23.57
2017-11-15T19:00:26.049Z,22.00
2017-11-15T19:02:55.683Z,24.53
2017-11-15T19:05:24.574Z,38.57
2017-11-15T19:07:53.448Z,29.73
2017-11-15T19:10:22.427Z,22.07
2017-11-15T19:12:51.293Z,22.37
2017-11-15T19:15:20.194Z,24.10
2017-11-15T19:17:49.327Z,24.33
2017-11-15T19:20:18.197Z,26.13
2017-11-15T19:22:47.851Z,32.47
2017-11-15T19:25:16.723Z,25.73
2017-11-15T19:27:45.571Z,25.20
2017-11-15T19:30:14.434Z,18.70
2017-11-15T19:32:43.313Z,19.10
2017-11-15T19:35:12.161Z,17.77
2017-11-15T19:37:41.120Z,20.70
2017-11-15T19:40:10.816Z,21.27
2017-11-15T19:42:41.197Z,20.53
2017-11-15T19:45:10.146Z,20.17
2017-11-15T19:47:39.036Z,19.73
2017-11-15T19:50:09.088Z,19.97
2017-11-15T19:52:39.446Z,20.93
2017-11-15T19:55:08.333Z,19.90
2017-11-15T19:57:37.260Z,23.77
2017-11-15T20:00:06.153Z,26.97
2017-11-15T20:02:35.060Z,24.63
2017-11-15T20:05:04.704Z,35.50
2017-11-15T20:07:33.646Z,29.20
2017-11-15T20:10:03.470Z,30.10
2017-11-15T20:12:32.397Z,31.23
2017-11-15T20:15:01.346Z,21.50
2017-11-15T20:17:30.282Z,27.00
2017-11-15T20:19:59.456Z,25.90
2017-11-15T20:22:29.189Z,35.83
2017-11-15T20:24:58.084Z,47.30
2017-11-15T20:27:27.342Z,64.70
2017-11-15T20:29:56.628Z,34.40
2017-11-15T20:32:25.903Z,45.97
2017-11-15T20:34:54.866Z,52.33
2017-11-15T20:37:23.728Z,50.33
2017-11-15T20:39:54.033Z,60.50
2017-11-15T20:42:22.987Z,41.70
2017-11-15T20:44:51.832Z,36.63
2017-11-15T20:47:21.482Z,27.60
2017-11-15T20:49:50.333Z,21.60
2017-11-15T20:52:20.314Z,20.10
2017-11-15T20:54:49.188Z,23.63
2017-11-15T20:57:18.318Z,27.43
2017-11-15T20:59:47.865Z,35.43
2017-11-15T21:02:17.512Z,35.30
2017-11-15T21:04:46.994Z,29.47
2017-11-15T21:07:15.926Z,31.13
2017-11-15T21:09:45.855Z,29.83
2017-11-15T21:22:00.545Z,25.80
2017-11-15T21:24:29.417Z,23.03
2017-11-15T21:26:59.384Z,18.77
2017-11-15T21:29:29.026Z,22.83
2017-11-15T21:31:57.853Z,21.60
2017-11-15T21:34:26.713Z,25.73
2017-11-15T21:36:56.249Z,22.03
2017-11-15T21:39:25.133Z,20.07
2017-11-15T21:41:54.053Z,20.67
2017-11-15T21:44:22.980Z,23.90
2017-11-15T21:46:51.820Z,22.10
2017-11-15T21:49:23.130Z,23.13
2017-11-15T21:51:52.026Z,21.93
2017-11-15T21:54:20.864Z,21.33
2017-11-15T21:56:49.744Z,22.17
2017-11-15T21:59:18.597Z,26.03
2017-11-15T22:01:47.865Z,25.80
2017-11-15T22:04:17.501Z,26.83
2017-11-15T22:06:46.349Z,20.63
2017-11-15T22:09:15.999Z,23.60
2017-11-15T22:11:44.891Z,23.93
2017-11-15T22:14:13.736Z,21.73
2017-11-15T22:16:42.637Z,23.27
2017-11-15T22:19:12.279Z,22.00
2017-11-15T22:21:41.973Z,23.83
2017-11-15T22:24:11.588Z,24.47
2017-11-15T22:26:40.436Z,26.33
2017-11-15T22:29:09.290Z,22.20
2017-11-15T22:31:38.147Z,23.63
2017-11-15T22:34:07.769Z,24.77
2017-11-15T22:36:36.608Z,26.13
2017-11-15T22:39:05.477Z,26.07
2017-11-15T22:41:34.339Z,26.20
2017-11-15T22:44:03.192Z,24.53
2017-11-15T22:46:32.115Z,26.57
2017-11-15T22:49:00.971Z,24.33
2017-11-15T22:51:30.917Z,26.07
2017-11-15T22:54:00.523Z,26.27
2017-11-15T22:56:30.156Z,27.60
2017-11-15T22:58:59.007Z,24.53
2017-11-15T23:01:28.341Z,30.80
2017-11-15T23:03:57.193Z,22.17
2017-11-15T23:06:26.376Z,22.30
2017-11-15T23:08:55.224Z,25.80
2017-11-15T23:11:24.175Z,21.63
2017-11-15T23:13:53.793Z,25.30
2017-11-15T23:16:24.005Z,25.07
2017-11-15T23:18:53.621Z,24.87
2017-11-15T23:21:22.540Z,25.37
2017-11-15T23:23:51.438Z,25.97
2017-11-15T23:26:20.337Z,23.63
2017-11-15T23:28:49.213Z,30.03
2017-11-15T23:31:18.068Z,21.70
2017-11-15T23:33:47.674Z,23.33
2017-11-15T23:36:17.309Z,21.20
2017-11-15T23:38:46.173Z,20.37
2017-11-15T23:41:15.780Z,21.90
2017-11-15T23:43:45.415Z,19.57
2017-11-15T23:46:14.281Z,20.07
2017-11-15T23:48:43.925Z,20.83
2017-11-15T23:51:12.757Z,21.07
2017-11-15T23:53:42.370Z,20.73
2017-11-15T23:56:11.988Z,19.50
2017-11-15T23:58:40.853Z,23.03
